createdAt,value
2022-07-31T00:01:20.171Z,3.72
2022-07-31T00:03:48.129Z,3.60
2022-07-31T00:06:16.142Z,3.10
2022-07-31T00:08:44.119Z,3.43
2022-07-31T00:11:12.628Z,3.40
2022-07-31T00:13:57.437Z,3.43
2022-07-31T00:16:27.966Z,3.70
2022-07-31T00:18:56.372Z,3.55
2022-07-31T00:21:24.596Z,3.80
2022-07-31T00:23:52.659Z,3.57
2022-07-31T00:26:20.590Z,3.57
2022-07-31T00:28:48.796Z,2.80
2022-07-31T00:31:18.374Z,3.00
2022-07-31T00:33:47.628Z,2.97
2022-07-31T00:36:15.525Z,3.20
2022-07-31T00:38:43.432Z,2.95
2022-07-31T00:41:11.382Z,2.85
2022-07-31T00:43:39.211Z,2.70
2022-07-31T00:46:07.120Z,3.10
2022-07-31T00:48:42.689Z,3.10
2022-07-31T00:51:12.593Z,3.08
2022-07-31T00:54:22.679Z,2.77
2022-07-31T00:56:51.696Z,2.63
2022-07-31T00:59:24.458Z,2.60
2022-07-31T01:02:13.911Z,2.90
2022-07-31T01:04:44.472Z,2.53
2022-07-31T01:07:15.263Z,3.10
2022-07-31T01:09:43.526Z,2.87
2022-07-31T01:12:19.304Z,2.97
2022-07-31T01:14:55.737Z,2.83
2022-07-31T01:17:24.260Z,3.10
2022-07-31T01:19:52.846Z,2.80
2022-07-31T01:22:32.938Z,2.93
2022-07-31T01:25:07.989Z,3.00
2022-07-31T01:27:49.443Z,2.93
2022-07-31T01:31:17.267Z,2.80
2022-07-31T01:33:50.067Z,2.80
2022-07-31T01:36:20.947Z,2.33
2022-07-31T01:38:59.798Z,3.03
2022-07-31T01:41:29.604Z,3.03
2022-07-31T01:43:58.178Z,3.00
2022-07-31T01:46:28.109Z,2.93
2022-07-31T01:48:56.149Z,3.00
2022-07-31T01:51:24.623Z,3.20
2022-07-31T01:53:52.575Z,2.67
2022-07-31T01:56:20.508Z,2.87
2022-07-31T01:58:48.659Z,2.90
2022-07-31T02:01:16.687Z,2.70
2022-07-31T02:03:45.993Z,2.90
2022-07-31T02:06:19.530Z,3.23
2022-07-31T02:08:48.199Z,2.93
2022-07-31T02:11:16.192Z,3.10
2022-07-31T02:13:44.161Z,3.27
2022-07-31T02:16:12.232Z,3.00
2022-07-31T02:18:40.101Z,3.17
2022-07-31T02:21:09.503Z,3.40
2022-07-31T02:23:38.557Z,2.90
2022-07-31T02:26:07.303Z,3.30
2022-07-31T02:28:35.821Z,2.90
2022-07-31T02:31:03.713Z,3.10
2022-07-31T02:33:31.567Z,3.13
2022-07-31T02:35:59.473Z,3.40
2022-07-31T02:38:28.832Z,3.10
2022-07-31T02:40:58.792Z,2.97
2022-07-31T02:43:26.938Z,3.33
2022-07-31T02:45:55.069Z,3.70
2022-07-31T02:48:22.952Z,3.27
2022-07-31T02:50:50.889Z,2.80
2022-07-31T02:53:18.719Z,2.90
2022-07-31T02:55:48.088Z,3.20
2022-07-31T02:58:16.022Z,2.70
2022-07-31T03:00:44.006Z,3.03
2022-07-31T03:03:12.005Z,2.90
2022-07-31T03:05:39.890Z,3.23
2022-07-31T03:08:07.856Z,3.00
2022-07-31T03:10:35.843Z,2.70
2022-07-31T03:13:05.101Z,2.80
2022-07-31T03:15:32.964Z,2.80
2022-07-31T03:18:00.884Z,2.70
2022-07-31T03:20:28.871Z,3.07
2022-07-31T03:22:56.812Z,3.23
2022-07-31T03:25:24.686Z,3.03
2022-07-31T03:27:56.194Z,2.83
2022-07-31T03:30:26.436Z,2.50
2022-07-31T03:32:54.462Z,2.53
2022-07-31T03:35:22.370Z,2.37
2022-07-31T03:37:50.340Z,2.87
2022-07-31T03:40:18.289Z,2.37
2022-07-31T03:42:46.149Z,2.80
2022-07-31T03:45:14.222Z,2.80
2022-07-31T03:47:44.102Z,2.83
2022-07-31T03:50:12.512Z,2.37
2022-07-31T03:52:40.841Z,2.73
2022-07-31T03:55:09.979Z,2.90
2022-07-31T03:57:38.323Z,2.90
2022-07-31T04:00:13.200Z,2.90
2022-07-31T04:02:47.246Z,2.87
2022-07-31T04:05:15.448Z,2.40
2022-07-31T04:07:43.850Z,2.93
2022-07-31T04:10:12.575Z,2.70
2022-07-31T04:12:40.855Z,2.90
2022-07-31T04:15:09.966Z,2.70
2022-07-31T04:17:38.204Z,2.40
2022-07-31T04:20:09.622Z,2.53
2022-07-31T04:22:37.849Z,2.63
2022-07-31T04:25:08.613Z,2.87
2022-07-31T04:27:48.652Z,2.67
2022-07-31T04:30:17.372Z,2.57
2022-07-31T04:32:46.399Z,2.60
2022-07-31T04:35:16.404Z,2.70
2022-07-31T04:37:48.099Z,3.13
2022-07-31T04:40:17.187Z,2.83
2022-07-31T04:42:45.133Z,3.03
2022-07-31T04:45:13.342Z,3.43
2022-07-31T04:47:41.254Z,2.80
2022-07-31T04:50:10.402Z,3.00
2022-07-31T04:52:39.692Z,3.37
2022-07-31T04:55:08.205Z,3.03
2022-07-31T04:57:36.170Z,3.03
2022-07-31T05:00:04.751Z,3.37
2022-07-31T05:02:32.678Z,3.30
2022-07-31T05:05:00.691Z,3.60
2022-07-31T05:07:28.998Z,3.63
2022-07-31T05:09:58.740Z,3.37
2022-07-31T05:12:26.861Z,3.37
2022-07-31T05:14:54.737Z,3.47
2022-07-31T05:17:23.667Z,3.23
2022-07-31T05:19:56.841Z,3.57
2022-07-31T05:22:24.690Z,3.10
2022-07-31T05:24:54.794Z,3.47
2022-07-31T05:27:24.087Z,3.57
2022-07-31T05:29:52.154Z,3.63
2022-07-31T05:32:20.023Z,2.88
2022-07-31T05:34:48.025Z,3.20
2022-07-31T05:37:15.942Z,3.37
2022-07-31T05:39:43.868Z,3.07
2022-07-31T05:42:12.194Z,3.30
2022-07-31T05:44:41.457Z,4.20
2022-07-31T05:47:09.512Z,3.53
2022-07-31T05:49:37.535Z,3.38
2022-07-31T05:52:06.215Z,2.67
2022-07-31T05:54:34.458Z,3.15
2022-07-31T05:57:02.417Z,3.13
2022-07-31T05:59:30.315Z,3.35
2022-07-31T06:02:00.290Z,3.47
2022-07-31T06:04:29.098Z,3.30
2022-07-31T06:06:57.326Z,3.00
2022-07-31T06:09:25.793Z,3.22
2022-07-31T06:11:53.977Z,3.05
2022-07-31T06:14:22.026Z,3.47
2022-07-31T06:16:50.296Z,3.60
2022-07-31T06:19:24.558Z,3.83
2022-07-31T06:22:01.879Z,3.42
2022-07-31T06:24:29.851Z,3.95
2022-07-31T06:26:58.199Z,3.70
2022-07-31T06:29:41.139Z,3.65
2022-07-31T06:32:10.250Z,4.03
2022-07-31T06:34:46.540Z,3.97
2022-07-31T06:37:30.987Z,3.60
2022-07-31T06:43:42.852Z,4.53
2022-07-31T06:46:14.571Z,4.40
2022-07-31T06:48:42.484Z,3.97
2022-07-31T06:51:30.303Z,3.90
2022-07-31T06:53:59.067Z,3.53
2022-07-31T06:56:26.965Z,4.03
2022-07-31T06:58:55.270Z,4.03
2022-07-31T07:01:23.481Z,3.65
2022-07-31T07:03:51.606Z,3.58
2022-07-31T07:06:20.895Z,3.72
2022-07-31T07:08:48.893Z,3.70
2022-07-31T07:11:17.320Z,3.70
2022-07-31T07:13:46.827Z,3.47
2022-07-31T07:16:16.253Z,3.30
2022-07-31T07:18:44.381Z,2.45
2022-07-31T07:21:12.406Z,2.70
2022-07-31T07:23:41.770Z,2.75
2022-07-31T07:26:09.640Z,3.00
2022-07-31T07:28:37.514Z,2.78
2022-07-31T07:31:06.924Z,3.10
2022-07-31T07:33:40.789Z,3.25
2022-07-31T07:36:23.002Z,3.03
2022-07-31T07:38:54.910Z,3.15
2022-07-31T07:41:23.993Z,2.88
2022-07-31T07:43:52.308Z,2.80
2022-07-31T07:46:21.203Z,3.38
2022-07-31T07:48:50.890Z,3.47
2022-07-31T07:51:21.195Z,3.17
2022-07-31T07:53:49.202Z,3.35
2022-07-31T07:56:18.693Z,3.35
2022-07-31T07:58:46.621Z,3.20
2022-07-31T08:01:14.882Z,3.45
2022-07-31T08:03:50.686Z,3.70
2022-07-31T08:06:21.163Z,3.50
2022-07-31T08:08:49.119Z,3.58
2022-07-31T08:11:18.565Z,4.13
2022-07-31T08:13:50.670Z,4.10
2022-07-31T08:16:20.223Z,3.75
2022-07-31T08:18:48.295Z,3.67
2022-07-31T08:21:16.324Z,3.45
2022-07-31T08:23:44.683Z,3.20
2022-07-31T08:26:14.049Z,3.28
2022-07-31T08:28:50.790Z,3.28
2022-07-31T08:31:20.020Z,3.83
2022-07-31T08:33:48.610Z,3.83
2022-07-31T08:36:16.490Z,3.33
2022-07-31T08:38:44.396Z,3.88
2022-07-31T08:41:14.781Z,3.67
2022-07-31T08:44:00.381Z,3.08
2022-07-31T08:46:32.524Z,2.80
2022-07-31T08:49:00.455Z,3.50
2022-07-31T08:51:28.385Z,3.10
2022-07-31T08:53:56.307Z,3.33
2022-07-31T08:56:24.383Z,3.17
2022-07-31T08:58:53.999Z,2.88
2022-07-31T09:01:21.940Z,2.80
2022-07-31T09:03:49.829Z,3.25
2022-07-31T09:06:17.685Z,3.08
2022-07-31T09:08:45.656Z,2.58
2022-07-31T09:11:15.522Z,3.42
2022-07-31T09:14:01.811Z,3.08
2022-07-31T09:16:31.363Z,3.13
2022-07-31T09:19:00.175Z,2.70
2022-07-31T09:21:28.137Z,3.00
2022-07-31T09:23:56.297Z,2.75
2022-07-31T09:26:33.928Z,2.60
2022-07-31T09:29:04.608Z,2.45
2022-07-31T09:31:33.554Z,3.20
2022-07-31T09:34:01.793Z,2.63
2022-07-31T09:36:29.729Z,2.63
2022-07-31T09:47:26.994Z,2.95
2022-07-31T09:49:58.239Z,2.40
2022-07-31T09:52:26.516Z,2.42
2022-07-31T09:55:15.905Z,3.00
2022-07-31T09:57:52.515Z,2.58
2022-07-31T10:00:20.441Z,2.70
2022-07-31T10:02:49.680Z,2.60
2022-07-31T10:05:17.633Z,2.38
2022-07-31T10:07:45.642Z,2.50
2022-07-31T10:10:20.002Z,2.67
2022-07-31T10:12:55.529Z,3.10
2022-07-31T10:15:24.153Z,2.63
2022-07-31T10:17:55.126Z,3.00
2022-07-31T10:20:26.302Z,2.60
2022-07-31T10:22:55.530Z,2.40
2022-07-31T10:25:26.284Z,2.50
2022-07-31T10:27:54.562Z,2.60
2022-07-31T10:30:27.376Z,2.33
2022-07-31T10:32:58.655Z,2.53
2022-07-31T10:35:26.921Z,2.97
2022-07-31T10:37:57.844Z,2.60
2022-07-31T10:40:28.758Z,2.60
2022-07-31T10:43:03.077Z,2.70
2022-07-31T10:45:32.117Z,2.60
2022-07-31T10:48:03.505Z,2.70
2022-07-31T10:50:32.115Z,2.92
2022-07-31T10:53:09.023Z,2.85
2022-07-31T10:55:37.478Z,2.50
2022-07-31T10:58:09.832Z,2.25
2022-07-31T11:00:37.974Z,2.42
2022-07-31T11:03:24.557Z,2.40
2022-07-31T11:06:01.930Z,2.88
2022-07-31T11:08:41.247Z,3.20
2022-07-31T11:11:09.195Z,3.92
2022-07-31T11:13:46.191Z,3.45
2022-07-31T11:16:14.116Z,2.78
2022-07-31T11:18:46.040Z,2.67
2022-07-31T11:21:37.130Z,2.60
2022-07-31T11:24:03.184Z,2.65
2022-07-31T11:26:41.512Z,2.58
2022-07-31T11:30:00.007Z,2.22
2022-07-31T11:32:14.466Z,2.33
2022-07-31T11:34:51.935Z,2.65
2022-07-31T11:37:22.938Z,2.40
2022-07-31T11:39:52.572Z,2.17
2022-07-31T11:42:21.234Z,2.40
2022-07-31T11:45:15.032Z,2.03
2022-07-31T11:48:12.159Z,2.60
2022-07-31T11:50:32.372Z,2.38
2022-07-31T11:53:04.700Z,2.50
2022-07-31T11:55:33.031Z,2.42
2022-07-31T11:58:01.035Z,2.22
2022-07-31T12:00:30.510Z,2.63
2022-07-31T12:02:58.716Z,2.50
2022-07-31T12:05:35.275Z,2.50
2022-07-31T12:08:07.538Z,2.00
2022-07-31T12:10:35.493Z,2.53
2022-07-31T12:13:03.548Z,2.55
2022-07-31T12:15:32.868Z,2.42
2022-07-31T12:18:01.765Z,2.90
2022-07-31T12:20:35.789Z,3.40
2022-07-31T12:23:05.728Z,3.00
2022-07-31T12:25:43.378Z,3.70
2022-07-31T12:28:11.458Z,2.65
2022-07-31T12:30:40.725Z,2.65
2022-07-31T12:33:09.171Z,2.90
2022-07-31T12:35:55.886Z,2.38
2022-07-31T12:38:48.036Z,2.40
2022-07-31T12:41:13.988Z,2.50
2022-07-31T12:43:52.500Z,2.72
2022-07-31T12:46:36.246Z,2.65
2022-07-31T12:49:04.341Z,2.50
2022-07-31T12:51:45.284Z,2.45
2022-07-31T12:54:17.819Z,2.40
2022-07-31T12:56:47.501Z,2.58
2022-07-31T12:59:42.949Z,2.60
2022-07-31T13:02:14.728Z,3.13
2022-07-31T13:04:42.844Z,2.75
2022-07-31T13:07:12.955Z,2.72
2022-07-31T13:09:40.967Z,2.63
2022-07-31T13:12:12.787Z,2.55
2022-07-31T13:14:40.740Z,2.83
2022-07-31T13:17:08.769Z,2.78
2022-07-31T13:19:38.513Z,2.60
2022-07-31T13:22:09.394Z,2.40
2022-07-31T13:24:37.256Z,2.42
2022-07-31T13:27:06.007Z,2.90
2022-07-31T13:29:34.589Z,2.88
2022-07-31T13:32:02.674Z,3.08
2022-07-31T13:34:30.558Z,2.92
2022-07-31T13:37:00.086Z,2.67
2022-07-31T13:39:48.795Z,2.83
2022-07-31T13:42:16.674Z,3.15
2022-07-31T13:44:47.613Z,2.58
2022-07-31T13:47:15.575Z,2.90
2022-07-31T13:49:43.615Z,3.53
2022-07-31T13:52:24.607Z,3.40
2022-07-31T13:54:52.610Z,3.80
2022-07-31T13:57:20.653Z,3.58
2022-07-31T13:59:48.560Z,2.97
2022-07-31T14:02:16.843Z,3.03
2022-07-31T14:04:45.079Z,2.97
2022-07-31T14:07:13.190Z,3.88
2022-07-31T14:09:51.353Z,3.47
2022-07-31T14:12:24.188Z,3.58
2022-07-31T14:14:52.518Z,2.97
2022-07-31T14:17:21.252Z,4.40
2022-07-31T14:19:49.312Z,3.97
2022-07-31T14:22:17.319Z,3.50
2022-07-31T14:24:50.719Z,3.40
2022-07-31T14:27:19.647Z,3.28
2022-07-31T14:29:47.858Z,3.40
2022-07-31T14:32:15.826Z,3.15
2022-07-31T14:34:43.746Z,3.47
2022-07-31T14:37:12.694Z,3.20
2022-07-31T14:39:42.932Z,3.60
2022-07-31T14:42:12.743Z,3.80
2022-07-31T14:44:42.139Z,3.30
2022-07-31T14:47:10.944Z,3.47
2022-07-31T14:50:08.996Z,3.40
2022-07-31T14:52:28.315Z,3.72
2022-07-31T14:54:56.249Z,3.53
2022-07-31T14:59:58.844Z,3.10
2022-07-31T15:02:26.709Z,3.47
2022-07-31T15:04:54.734Z,3.55
2022-07-31T15:07:43.982Z,3.60
2022-07-31T15:10:11.580Z,4.13
2022-07-31T15:12:39.663Z,3.67
2022-07-31T15:15:10.602Z,4.10
2022-07-31T15:17:38.742Z,4.07
2022-07-31T15:20:07.666Z,3.67
2022-07-31T15:22:35.813Z,4.00
2022-07-31T15:25:04.263Z,4.57
2022-07-31T15:27:34.410Z,4.82
2022-07-31T15:30:06.921Z,3.97
2022-07-31T15:32:37.661Z,3.80
2022-07-31T15:35:06.248Z,4.15
2022-07-31T15:37:35.471Z,4.57
2022-07-31T15:40:04.769Z,4.03
2022-07-31T15:42:32.914Z,4.43
2022-07-31T15:45:00.896Z,3.17
2022-07-31T15:47:28.737Z,3.65
2022-07-31T15:49:58.019Z,3.72
2022-07-31T15:52:26.153Z,3.50
2022-07-31T15:54:54.156Z,3.60
2022-07-31T15:57:22.118Z,3.60
2022-07-31T15:59:50.173Z,4.03
2022-07-31T16:02:18.389Z,4.32
2022-07-31T16:04:53.097Z,3.85
2022-07-31T16:08:34.229Z,3.85
2022-07-31T16:10:18.034Z,3.75
2022-07-31T16:12:46.353Z,3.78
2022-07-31T16:15:14.320Z,4.00
2022-07-31T16:17:42.238Z,4.00
2022-07-31T16:20:11.436Z,4.00
2022-07-31T16:22:41.525Z,4.00
2022-07-31T16:25:10.005Z,4.68
2022-07-31T16:27:39.081Z,3.80
2022-07-31T16:30:08.820Z,4.03
2022-07-31T16:32:36.650Z,3.80
2022-07-31T16:35:06.251Z,3.78
2022-07-31T16:37:51.138Z,3.95
2022-07-31T16:40:28.983Z,4.47
2022-07-31T16:43:01.899Z,4.70
2022-07-31T16:45:36.534Z,4.15
2022-07-31T16:48:07.954Z,4.65
2022-07-31T16:50:35.840Z,3.83
2022-07-31T16:53:03.744Z,4.63
2022-07-31T16:56:00.270Z,4.97
2022-07-31T16:58:24.672Z,4.15
2022-07-31T17:00:52.822Z,3.55
2022-07-31T17:04:00.194Z,3.67
2022-07-31T17:06:11.265Z,3.30
2022-07-31T17:08:39.134Z,3.92
2022-07-31T17:11:08.734Z,4.40
2022-07-31T17:13:36.600Z,3.33
2022-07-31T17:16:04.879Z,3.70
2022-07-31T17:18:32.762Z,3.60
2022-07-31T17:21:00.827Z,3.78
2022-07-31T17:23:43.976Z,3.55
2022-07-31T17:26:21.400Z,3.08
2022-07-31T17:28:50.717Z,3.45
2022-07-31T17:31:20.707Z,4.45
2022-07-31T17:34:00.639Z,7.63
2022-07-31T17:36:30.055Z,3.35
2022-07-31T17:41:40.725Z,3.55
2022-07-31T17:44:08.924Z,3.45
2022-07-31T17:46:48.063Z,3.95
2022-07-31T17:49:20.611Z,3.58
2022-07-31T17:51:58.794Z,3.00
2022-07-31T17:54:27.618Z,2.83
2022-07-31T17:56:57.234Z,2.35
2022-07-31T17:59:26.024Z,3.15
2022-07-31T18:01:59.763Z,2.80
2022-07-31T18:04:27.965Z,3.30
2022-07-31T18:06:55.806Z,2.72
2022-07-31T18:09:24.213Z,3.25
2022-07-31T18:11:52.126Z,4.55
2022-07-31T18:14:24.481Z,2.65
2022-07-31T18:16:52.964Z,2.38
2022-07-31T18:19:21.866Z,2.53
2022-07-31T18:21:53.299Z,2.47
2022-07-31T18:24:21.632Z,2.50
2022-07-31T18:27:02.488Z,2.88
2022-07-31T18:29:32.057Z,2.50
2022-07-31T18:32:00.319Z,2.72
2022-07-31T18:34:28.833Z,2.58
2022-07-31T18:36:56.995Z,2.60
2022-07-31T18:39:25.097Z,2.72
2022-07-31T18:41:53.866Z,2.53
2022-07-31T18:44:22.853Z,3.00
2022-07-31T18:46:53.671Z,2.95
2022-07-31T18:51:01.666Z,3.10
2022-07-31T18:52:10.383Z,3.00
2022-07-31T18:54:39.065Z,3.00
2022-07-31T18:57:07.970Z,5.70
2022-07-31T18:59:35.937Z,3.25
2022-07-31T19:02:05.667Z,3.55
2022-07-31T19:04:34.163Z,3.15
2022-07-31T19:07:02.198Z,3.15
2022-07-31T19:09:30.476Z,3.30
2022-07-31T19:11:59.033Z,5.72
2022-07-31T19:14:27.080Z,5.68
2022-07-31T19:16:57.853Z,4.60
2022-07-31T19:19:54.217Z,4.05
2022-07-31T19:22:15.147Z,4.10
2022-07-31T19:24:45.118Z,3.90
2022-07-31T19:27:13.076Z,4.15
2022-07-31T19:29:41.064Z,4.32
2022-07-31T19:32:09.033Z,4.60
2022-07-31T19:34:38.435Z,4.43
2022-07-31T19:37:10.019Z,3.83
2022-07-31T19:39:37.903Z,3.80
2022-07-31T19:42:11.803Z,3.65
2022-07-31T19:44:40.241Z,3.40
2022-07-31T19:47:08.249Z,3.72
2022-07-31T19:49:38.382Z,3.35
2022-07-31T19:52:08.428Z,3.05
2022-07-31T19:54:36.472Z,3.25
2022-07-31T19:57:04.370Z,3.25
2022-07-31T19:59:32.269Z,3.38
2022-07-31T20:02:00.135Z,3.85
2022-07-31T20:04:27.997Z,3.53
2022-07-31T20:06:57.466Z,3.95
2022-07-31T20:09:26.752Z,5.65
2022-07-31T20:11:54.650Z,5.60
2022-07-31T20:14:22.553Z,5.53
2022-07-31T20:16:50.455Z,6.30
2022-07-31T20:19:18.313Z,7.13
2022-07-31T20:21:46.215Z,7.60
2022-07-31T20:24:17.749Z,8.20
2022-07-31T20:26:47.122Z,9.68
2022-07-31T20:29:15.088Z,8.45
2022-07-31T20:31:43.196Z,11.48
2022-07-31T20:34:11.024Z,11.38
2022-07-31T20:36:39.566Z,12.95
2022-07-31T20:39:07.590Z,15.40
2022-07-31T20:41:36.231Z,14.77
2022-07-31T20:44:05.975Z,14.52
2022-07-31T20:46:34.168Z,15.38
2022-07-31T20:49:02.059Z,13.73
2022-07-31T20:51:29.940Z,13.93
2022-07-31T20:53:58.243Z,12.48
2022-07-31T20:56:26.277Z,11.48
2022-07-31T20:58:54.119Z,11.20
2022-07-31T21:01:23.613Z,11.43
2022-07-31T21:03:51.597Z,10.60
2022-07-31T21:06:21.123Z,10.00
2022-07-31T21:08:49.022Z,10.30
2022-07-31T21:11:17.361Z,9.32
2022-07-31T21:13:45.567Z,8.25
2022-07-31T21:16:13.778Z,8.82
2022-07-31T21:18:43.753Z,8.45
2022-07-31T21:21:11.893Z,9.00
2022-07-31T21:23:39.834Z,8.50
2022-07-31T21:26:08.790Z,7.88
2022-07-31T21:28:37.004Z,8.93
2022-07-31T21:31:05.476Z,7.90
2022-07-31T21:33:34.022Z,8.13
2022-07-31T21:36:05.909Z,8.73
2022-07-31T21:38:35.347Z,8.25
2022-07-31T21:41:03.794Z,8.20
2022-07-31T21:43:33.530Z,8.43
2022-07-31T21:46:21.085Z,7.88
2022-07-31T21:48:51.468Z,8.73
2022-07-31T21:51:21.500Z,8.32
2022-07-31T21:53:49.464Z,8.63
2022-07-31T21:56:17.526Z,8.93
2022-07-31T21:58:45.792Z,7.57
2022-07-31T22:01:15.375Z,7.60
2022-07-31T22:03:43.823Z,8.13
2022-07-31T22:06:29.537Z,7.90
2022-07-31T22:08:59.501Z,6.95
2022-07-31T22:11:27.747Z,6.82
2022-07-31T22:13:56.845Z,6.53
2022-07-31T22:16:25.088Z,6.30
2022-07-31T22:18:53.830Z,5.95
2022-07-31T22:21:22.282Z,6.68
2022-07-31T22:23:50.876Z,6.57
2022-07-31T22:26:21.181Z,6.57
2022-07-31T22:28:52.473Z,6.15
2022-07-31T22:31:21.757Z,6.65
2022-07-31T22:33:51.958Z,6.47
2022-07-31T22:36:19.883Z,6.13
2022-07-31T22:38:48.184Z,7.00
2022-07-31T22:41:16.390Z,5.85
2022-07-31T22:44:12.756Z,6.05
2022-07-31T22:46:33.905Z,5.95
2022-07-31T22:49:02.020Z,5.82
2022-07-31T22:51:30.129Z,6.00
2022-07-31T22:53:58.247Z,6.10
2022-07-31T22:56:26.192Z,6.65
2022-07-31T22:58:55.527Z,6.15
2022-07-31T23:01:23.433Z,6.03
2022-07-31T23:03:53.651Z,5.75
2022-07-31T23:06:31.819Z,5.38
2022-07-31T23:09:01.082Z,6.22
2022-07-31T23:11:29.011Z,6.25
2022-07-31T23:13:58.250Z,5.88
2022-07-31T23:16:26.127Z,6.70
2022-07-31T23:18:54.008Z,7.00
2022-07-31T23:21:21.869Z,6.50
2022-07-31T23:23:49.865Z,6.72
2022-07-31T23:26:18.954Z,6.70
2022-07-31T23:28:47.079Z,6.93
2022-07-31T23:31:16.313Z,6.38
2022-07-31T23:33:44.276Z,5.50
2022-07-31T23:36:12.194Z,5.35
2022-07-31T23:38:40.123Z,5.45
2022-07-31T23:41:08.006Z,5.53
2022-07-31T23:43:34.981Z,5.32
2022-07-31T23:46:02.917Z,5.47
2022-07-31T23:48:32.825Z,5.38
2022-07-31T23:51:00.753Z,5.55
2022-07-31T23:53:28.741Z,5.95
2022-07-31T23:58:24.498Z,5.78
